sensor_id;sensor_type;location;lat;lon;timestamp;pressure;altitude;pressure_sealevel;temperature;humidity
4858;BME280;58975;51.978;8.472;2023-03-01T00:01:23;101775.00;;;-3.57;100.00
4858;BME280;58975;51.978;8.472;2023-03-01T00:06:20;101775.88;;;-3.61;100.00
4858;BME280;58975;51.978;8.472;2023-03-01T00:11:20;101774.13;;;-3.59;100.00
4858;BME280;58975;51.978;8.472;2023-03-01T00:16:21;101775.00;;;-3.61;100.00
4858;BME280;58975;51.978;8.472;2023-03-01T00:21:20;101775.88;;;-3.64;100.00
4858;BME280;58975;51.978;8.472;2023-03-01T00:26:19;101769.78;;;-3.48;100.00
4858;BME280;58975;51.978;8.472;2023-03-01T00:31:21;101770.63;;;-3.32;100.00
4858;BME280;58975;51.978;8.472;2023-03-01T00:36:17;101772.38;;;-3.60;100.00
4858;BME280;58975;51.978;8.472;2023-03-01T00:41:16;101773.28;;;-3.80;100.00
4858;BME280;58975;51.978;8.472;2023-03-01T00:46:16;101771.56;;;-3.85;100.00
4858;BME280;58975;51.978;8.472;2023-03-01T00:51:19;101784.56;;;-3.85;100.00
4858;BME280;58975;51.978;8.472;2023-03-01T00:56:18;101763.75;;;-3.89;100.00
4858;BME280;58975;51.978;8.472;2023-03-01T01:01:24;101759.38;;;-3.84;100.00
4858;BME280;58975;51.978;8.472;2023-03-01T01:06:29;101768.06;;;-3.79;100.00
4858;BME280;58975;51.978;8.472;2023-03-01T01:11:28;101764.59;;;-3.87;100.00
4858;BME280;58975;51.978;8.472;2023-03-01T01:16:27;101757.69;;;-3.93;100.00
4858;BME280;58975;51.978;8.472;2023-03-01T01:21:25;101761.13;;;-3.88;100.00
4858;BME280;58975;51.978;8.472;2023-03-01T01:26:24;101745.53;;;-3.77;100.00
4858;BME280;58975;51.978;8.472;2023-03-01T01:31:22;101738.56;;;-3.78;100.00
4858;BME280;58975;51.978;8.472;2023-03-01T01:36:20;101735.97;;;-3.69;100.00
4858;BME280;58975;51.978;8.472;2023-03-01T01:41:17;101733.34;;;-3.61;100.00
4858;BME280;58975;51.978;8.472;2023-03-01T01:51:30;101726.44;;;-3.73;100.00
4858;BME280;58975;51.978;8.472;2023-03-01T01:56:36;101709.94;;;-3.78;100.00
4858;BME280;58975;51.978;8.472;2023-03-01T02:01:33;101708.22;;;-3.77;100.00
4858;BME280;58975;51.978;8.472;2023-03-01T02:06:34;101711.69;;;-3.86;100.00
4858;BME280;58975;51.978;8.472;2023-03-01T02:11:32;101711.69;;;-3.89;100.00
4858;BME280;58975;51.978;8.472;2023-03-01T02:16:29;101706.50;;;-3.94;100.00
4858;BME280;58975;51.978;8.472;2023-03-01T02:26:54;101713.41;;;-3.76;100.00
4858;BME280;58975;51.978;8.472;2023-03-01T02:31:52;101716.91;;;-3.89;100.00
4858;BME280;58975;51.978;8.472;2023-03-01T02:37:11;101710.81;;;-3.91;100.00
4858;BME280;58975;51.978;8.472;2023-03-01T02:42:12;101704.75;;;-3.99;100.00
4858;BME280;58975;51.978;8.472;2023-03-01T02:47:09;101704.75;;;-4.02;100.00
4858;BME280;58975;51.978;8.472;2023-03-01T02:52:26;101703.00;;;-4.03;100.00
4858;BME280;58975;51.978;8.472;2023-03-01T02:57:26;101693.47;;;-4.00;100.00
4858;BME280;58975;51.978;8.472;2023-03-01T03:02:26;101706.50;;;-4.01;100.00
4858;BME280;58975;51.978;8.472;2023-03-01T03:07:36;101693.47;;;-4.00;100.00
4858;BME280;58975;51.978;8.472;2023-03-01T03:12:33;101681.31;;;-3.78;100.00
4858;BME280;58975;51.978;8.472;2023-03-01T03:17:30;101670.91;;;-3.81;100.00
4858;BME280;58975;51.978;8.472;2023-03-01T03:22:26;101669.19;;;-3.91;100.00
4858;BME280;58975;51.978;8.472;2023-03-01T03:27:25;101670.94;;;-3.93;100.00
4858;BME280;58975;51.978;8.472;2023-03-01T03:32:21;101665.75;;;-4.01;100.00
4858;BME280;58975;51.978;8.472;2023-03-01T03:37:17;101664.00;;;-4.05;100.00
4858;BME280;58975;51.978;8.472;2023-03-01T03:42:32;101664.88;;;-4.04;100.00
4858;BME280;58975;51.978;8.472;2023-03-01T03:47:29;101661.41;;;-4.12;100.00
4858;BME280;58975;51.978;8.472;2023-03-01T03:52:25;101657.06;;;-4.04;100.00
4858;BME280;58975;51.978;8.472;2023-03-01T03:57:22;101648.34;;;-3.82;100.00
4858;BME280;58975;51.978;8.472;2023-03-01T04:02:18;101650.09;;;-3.87;100.00
4858;BME280;58975;51.978;8.472;2023-03-01T04:07:18;101646.63;;;-3.88;100.00
4858;BME280;58975;51.978;8.472;2023-03-01T04:12:14;101639.72;;;-3.96;100.00
4858;BME280;58975;51.978;8.472;2023-03-01T04:17:16;101642.31;;;-3.93;100.00
4858;BME280;58975;51.978;8.472;2023-03-01T04:22:13;101653.56;;;-3.91;100.00
4858;BME280;58975;51.978;8.472;2023-03-01T04:27:14;101649.25;;;-4.10;100.00
4858;BME280;58975;51.978;8.472;2023-03-01T04:32:10;101639.72;;;-4.19;100.00
4858;BME280;58975;51.978;8.472;2023-03-01T04:37:07;101644.94;;;-4.25;100.00
4858;BME280;58975;51.978;8.472;2023-03-01T04:42:05;101649.28;;;-4.38;100.00
4858;BME280;58975;51.978;8.472;2023-03-01T04:47:01;101651.88;;;-4.41;100.00
4858;BME280;58975;51.978;8.472;2023-03-01T04:51:58;101646.66;;;-4.48;100.00
4858;BME280;58975;51.978;8.472;2023-03-01T04:56:58;101635.41;;;-4.55;100.00
4858;BME280;58975;51.978;8.472;2023-03-01T05:01:55;101636.25;;;-4.54;100.00
4858;BME280;58975;51.978;8.472;2023-03-01T05:06:52;101642.34;;;-4.45;100.00
4858;BME280;58975;51.978;8.472;2023-03-01T05:11:49;101638.00;;;-4.49;100.00
4858;BME280;58975;51.978;8.472;2023-03-01T05:16:47;101636.28;;;-4.51;100.00
4858;BME280;58975;51.978;8.472;2023-03-01T05:21:44;101640.59;;;-4.52;100.00
4858;BME280;58975;51.978;8.472;2023-03-01T05:27:01;101636.25;;;-4.57;100.00
4858;BME280;58975;51.978;8.472;2023-03-01T05:31:59;101634.53;;;-4.61;100.00
4858;BME280;58975;51.978;8.472;2023-03-01T05:36:57;101630.19;;;-4.64;100.00
4858;BME280;58975;51.978;8.472;2023-03-01T05:41:55;101634.50;;;-4.69;100.00
4858;BME280;58975;51.978;8.472;2023-03-01T05:46:52;101631.06;;;-4.68;100.00
4858;BME280;58975;51.978;8.472;2023-03-01T05:51:50;101631.06;;;-4.60;100.00
4858;BME280;58975;51.978;8.472;2023-03-01T05:56:47;101638.00;;;-4.56;100.00
4858;BME280;58975;51.978;8.472;2023-03-01T06:01:44;101634.53;;;-4.63;100.00
4858;BME280;58975;51.978;8.472;2023-03-01T06:06:40;101637.97;;;-4.70;100.00
4858;BME280;58975;51.978;8.472;2023-03-01T06:11:36;101633.66;;;-4.68;100.00
4858;BME280;58975;51.978;8.472;2023-03-01T06:16:33;101645.78;;;-4.64;100.00
4858;BME280;58975;51.978;8.472;2023-03-01T06:21:29;101643.19;;;-4.50;100.00
4858;BME280;58975;51.978;8.472;2023-03-01T06:26:26;101645.81;;;-4.47;100.00
4858;BME280;58975;51.978;8.472;2023-03-01T06:31:22;101650.16;;;-4.48;100.00
4858;BME280;58975;51.978;8.472;2023-03-01T06:36:19;101655.34;;;-4.42;100.00
4858;BME280;58975;51.978;8.472;2023-03-01T06:41:17;101652.75;;;-4.28;100.00
4858;BME280;58975;51.978;8.472;2023-03-01T06:46:13;101650.97;;;-3.90;100.00
4858;BME280;58975;51.978;8.472;2023-03-01T06:51:09;101645.75;;;-3.77;100.00
4858;BME280;58975;51.978;8.472;2023-03-01T06:56:06;101643.09;;;-3.64;100.00
4858;BME280;58975;51.978;8.472;2023-03-01T07:01:06;101636.09;;;-3.45;100.00
4858;BME280;58975;51.978;8.472;2023-03-01T07:06:03;101632.47;;;-3.17;100.00
4858;BME280;58975;51.978;8.472;2023-03-01T07:10:59;101637.66;;;-3.08;100.00
4858;BME280;58975;51.978;8.472;2023-03-01T07:15:58;101631.44;;;-2.84;100.00
4858;BME280;58975;51.978;8.472;2023-03-01T07:20:54;101626.94;;;-2.61;100.00
4858;BME280;58975;51.978;8.472;2023-03-01T07:25:54;101615.56;;;-2.48;100.00
4858;BME280;58975;51.978;8.472;2023-03-01T07:30:50;101611.13;;;-2.40;100.00
4858;BME280;58975;51.978;8.472;2023-03-01T07:35:47;101608.44;;;-2.30;100.00
4858;BME280;58975;51.978;8.472;2023-03-01T07:40:43;101604.88;;;-2.20;100.00
4858;BME280;58975;51.978;8.472;2023-03-01T07:45:39;101605.34;;;-1.83;100.00
4858;BME280;58975;51.978;8.472;2023-03-01T07:50:36;101606.97;;;-1.69;100.00
4858;BME280;58975;51.978;8.472;2023-03-01T07:55:32;101604.13;;;-1.52;100.00
4858;BME280;58975;51.978;8.472;2023-03-01T08:00:29;101610.03;;;-1.35;100.00
4858;BME280;58975;51.978;8.472;2023-03-01T08:05:25;101610.69;;;-1.18;100.00
4858;BME280;58975;51.978;8.472;2023-03-01T08:10:21;101616.47;;;-0.94;100.00
4858;BME280;58975;51.978;8.472;2023-03-01T08:15:18;101620.28;;;-0.60;100.00
4858;BME280;58975;51.978;8.472;2023-03-01T08:20:15;101616.22;;;-0.24;100.00
4858;BME280;58975;51.978;8.472;2023-03-01T08:25:15;101612.19;;;0.07;100.00
4858;BME280;58975;51.978;8.472;2023-03-01T08:30:11;101611.41;;;0.00;100.00
4858;BME280;58975;51.978;8.472;2023-03-01T08:35:08;101604.19;;;0.13;100.00
4858;BME280;58975;51.978;8.472;2023-03-01T08:40:05;101604.91;;;0.21;100.00
4858;BME280;58975;51.978;8.472;2023-03-01T08:45:03;101604.13;;;0.61;100.00
4858;BME280;58975;51.978;8.472;2023-03-01T08:50:00;101598.22;;;0.91;100.00
4858;BME280;58975;51.978;8.472;2023-03-01T08:54:56;101599.50;;;1.13;100.00
4858;BME280;58975;51.978;8.472;2023-03-01T08:59:52;101601.41;;;1.43;100.00
4858;BME280;58975;51.978;8.472;2023-03-01T09:04:52;101591.66;;;1.49;100.00
4858;BME280;58975;51.978;8.472;2023-03-01T09:09:48;101595.06;;;1.86;100.00
4858;BME280;58975;51.978;8.472;2023-03-01T09:14:44;101593.53;;;2.11;100.00
4858;BME280;58975;51.978;8.472;2023-03-01T09:19:41;101582.69;;;2.23;100.00
4858;BME280;58975;51.978;8.472;2023-03-01T09:24:37;101579.41;;;2.15;100.00
4858;BME280;58975;51.978;8.472;2023-03-01T09:29:36;101577.00;;;2.38;100.00
4858;BME280;58975;51.978;8.472;2023-03-01T09:34:33;101573.94;;;2.54;100.00
4858;BME280;58975;51.978;8.472;2023-03-01T09:39:49;101558.44;;;2.74;100.00
4858;BME280;58975;51.978;8.472;2023-03-01T09:44:59;101563.84;;;2.69;100.00
4858;BME280;58975;51.978;8.472;2023-03-01T09:50:18;101558.84;;;2.60;100.00
4858;BME280;58975;51.978;8.472;2023-03-01T10:00:47;101553.59;;;3.17;100.00
4858;BME280;58975;51.978;8.472;2023-03-01T10:06:02;101544.44;;;3.01;97.67
4858;BME280;58975;51.978;8.472;2023-03-01T10:11:00;101539.59;;;3.15;90.94
4858;BME280;58975;51.978;8.472;2023-03-01T10:16:03;101551.47;;;3.28;93.73
4858;BME280;58975;51.978;8.472;2023-03-01T10:21:20;101551.41;;;3.02;85.30
4858;BME280;58975;51.978;8.472;2023-03-01T10:31:15;101531.78;;;3.65;88.16
4858;BME280;58975;51.978;8.472;2023-03-01T10:36:14;101534.28;;;3.94;86.42
4858;BME280;58975;51.978;8.472;2023-03-01T10:41:11;101534.63;;;4.10;82.66
4858;BME280;58975;51.978;8.472;2023-03-01T10:46:31;101522.56;;;3.78;80.70
4858;BME280;58975;51.978;8.472;2023-03-01T10:51:28;101527.25;;;3.95;82.56
4858;BME280;58975;51.978;8.472;2023-03-01T10:56:25;101532.41;;;3.73;81.31
4858;BME280;58975;51.978;8.472;2023-03-01T11:01:31;101516.50;;;3.76;79.26
4858;BME280;58975;51.978;8.472;2023-03-01T11:06:29;101510.41;;;3.74;77.41
4858;BME280;58975;51.978;8.472;2023-03-01T11:11:31;101507.97;;;3.93;81.21
4858;BME280;58975;51.978;8.472;2023-03-01T11:16:31;101507.00;;;4.20;76.39
4858;BME280;58975;51.978;8.472;2023-03-01T11:21:31;101505.47;;;4.38;76.24
4858;BME280;58975;51.978;8.472;2023-03-01T11:26:30;101499.78;;;4.48;74.34
4858;BME280;58975;51.978;8.472;2023-03-01T11:31:30;101489.19;;;4.71;75.33
4858;BME280;58975;51.978;8.472;2023-03-01T11:36:30;101488.28;;;4.51;72.17
4858;BME280;58975;51.978;8.472;2023-03-01T11:41:31;101496.63;;;4.62;75.84
4858;BME280;58975;51.978;8.472;2023-03-01T11:46:51;101486.63;;;4.70;70.41
4858;BME280;58975;51.978;8.472;2023-03-01T11:52:14;101485.91;;;4.88;72.72
4858;BME280;58975;51.978;8.472;2023-03-01T12:02:52;101471.91;;;5.08;69.88
4858;BME280;58975;51.978;8.472;2023-03-01T12:19:31;101436.44;;;4.93;63.77
4858;BME280;58975;51.978;8.472;2023-03-01T12:29:43;101410.28;;;4.87;61.60
4858;BME280;58975;51.978;8.472;2023-03-01T12:35:08;101400.44;;;4.91;60.29
4858;BME280;58975;51.978;8.472;2023-03-01T12:40:24;101394.53;;;5.06;60.22
4858;BME280;58975;51.978;8.472;2023-03-01T12:50:53;101377.13;;;5.42;64.71
4858;BME280;58975;51.978;8.472;2023-03-01T12:55:52;101371.69;;;5.45;62.01
4858;BME280;58975;51.978;8.472;2023-03-01T13:11:51;101372.31;;;5.32;63.82
4858;BME280;58975;51.978;8.472;2023-03-01T13:16:48;101354.88;;;5.28;61.78
4858;BME280;58975;51.978;8.472;2023-03-01T13:21:47;101347.31;;;5.59;62.30
4858;BME280;58975;51.978;8.472;2023-03-01T13:32:01;101332.53;;;5.73;59.60
4858;BME280;58975;51.978;8.472;2023-03-01T13:37:18;101341.69;;;5.66;58.03
4858;BME280;58975;51.978;8.472;2023-03-01T13:42:40;101326.66;;;5.87;57.01
4858;BME280;58975;51.978;8.472;2023-03-01T13:47:38;101334.03;;;5.99;55.71
4858;BME280;58975;51.978;8.472;2023-03-01T13:52:40;101329.88;;;5.94;57.12
4858;BME280;58975;51.978;8.472;2023-03-01T13:57:38;101315.94;;;5.90;56.38
4858;BME280;58975;51.978;8.472;2023-03-01T14:02:35;101312.59;;;5.87;55.32
4858;BME280;58975;51.978;8.472;2023-03-01T14:07:32;101306.72;;;5.80;55.51
4858;BME280;58975;51.978;8.472;2023-03-01T14:17:48;101295.88;;;5.85;54.85
4858;BME280;58975;51.978;8.472;2023-03-01T14:22:50;101296.75;;;6.04;53.17
4858;BME280;58975;51.978;8.472;2023-03-01T14:27:56;101297.66;;;5.84;52.79
4858;BME280;58975;51.978;8.472;2023-03-01T14:32:56;101293.75;;;5.74;53.47
4858;BME280;58975;51.978;8.472;2023-03-01T14:37:53;101290.69;;;5.83;52.86
4858;BME280;58975;51.978;8.472;2023-03-01T14:42:50;101275.06;;;5.97;53.22
4858;BME280;58975;51.978;8.472;2023-03-01T14:47:47;101275.59;;;5.85;52.90
4858;BME280;58975;51.978;8.472;2023-03-01T14:52:46;101267.31;;;5.74;53.42
4858;BME280;58975;51.978;8.472;2023-03-01T14:57:47;101253.63;;;5.66;54.27
4858;BME280;58975;51.978;8.472;2023-03-01T15:02:46;101256.75;;;5.74;54.10
4858;BME280;58975;51.978;8.472;2023-03-01T15:07:45;101258.84;;;5.86;56.11
4858;BME280;58975;51.978;8.472;2023-03-01T15:12:44;101255.13;;;5.90;55.47
4858;BME280;58975;51.978;8.472;2023-03-01T15:17:41;101238.59;;;5.85;54.47
4858;BME280;58975;51.978;8.472;2023-03-01T15:22:37;101233.41;;;5.84;55.01
4858;BME280;58975;51.978;8.472;2023-03-01T15:27:33;101232.31;;;5.69;55.45
4858;BME280;58975;51.978;8.472;2023-03-01T15:32:32;101229.13;;;5.62;55.45
4858;BME280;58975;51.978;8.472;2023-03-01T15:37:47;101236.50;;;5.56;55.76
4858;BME280;58975;51.978;8.472;2023-03-01T15:42:44;101237.56;;;5.52;56.51
4858;BME280;58975;51.978;8.472;2023-03-01T15:47:43;101235.06;;;5.49;56.70
4858;BME280;58975;51.978;8.472;2023-03-01T15:52:44;101231.00;;;5.21;56.88
4858;BME280;58975;51.978;8.472;2023-03-01T15:57:40;101236.88;;;5.09;57.07
4858;BME280;58975;51.978;8.472;2023-03-01T16:02:37;101232.00;;;5.00;56.63
4858;BME280;58975;51.978;8.472;2023-03-01T16:07:34;101229.56;;;4.96;57.98
4858;BME280;58975;51.978;8.472;2023-03-01T16:12:35;101230.94;;;4.84;56.89
4858;BME280;58975;51.978;8.472;2023-03-01T16:17:32;101230.91;;;4.65;58.41
4858;BME280;58975;51.978;8.472;2023-03-01T16:22:28;101229.13;;;4.66;58.72
4858;BME280;58975;51.978;8.472;2023-03-01T16:27:24;101231.31;;;4.55;59.62
4858;BME280;58975;51.978;8.472;2023-03-01T16:32:20;101234.03;;;4.33;60.91
4858;BME280;58975;51.978;8.472;2023-03-01T16:37:17;101228.78;;;4.11;62.98
4858;BME280;58975;51.978;8.472;2023-03-01T16:42:17;101231.59;;;3.85;65.18
4858;BME280;58975;51.978;8.472;2023-03-01T16:47:13;101229.38;;;3.53;68.17
4858;BME280;58975;51.978;8.472;2023-03-01T16:52:10;101231.03;;;3.32;70.17
4858;BME280;58975;51.978;8.472;2023-03-01T16:57:06;101233.03;;;3.25;71.94
4858;BME280;58975;51.978;8.472;2023-03-01T17:02:04;101237.25;;;3.06;75.30
4858;BME280;58975;51.978;8.472;2023-03-01T17:07:02;101248.13;;;2.97;77.26
4858;BME280;58975;51.978;8.472;2023-03-01T17:11:58;101251.81;;;2.67;83.65
4858;BME280;58975;51.978;8.472;2023-03-01T17:16:55;101268.03;;;2.55;89.24
4858;BME280;58975;51.978;8.472;2023-03-01T17:21:51;101274.13;;;2.55;90.62
4858;BME280;58975;51.978;8.472;2023-03-01T17:26:48;101278.00;;;2.19;97.89
4858;BME280;58975;51.978;8.472;2023-03-01T17:31:44;101276.44;;;2.12;100.00
4858;BME280;58975;51.978;8.472;2023-03-01T17:36:41;101279.94;;;2.12;100.00
4858;BME280;58975;51.978;8.472;2023-03-01T17:41:39;101276.88;;;1.98;100.00
4858;BME280;58975;51.978;8.472;2023-03-01T17:46:35;101284.53;;;1.78;100.00
4858;BME280;58975;51.978;8.472;2023-03-01T17:51:32;101292.22;;;1.55;100.00
4858;BME280;58975;51.978;8.472;2023-03-01T17:56:29;101286.94;;;1.56;100.00
4858;BME280;58975;51.978;8.472;2023-03-01T18:01:27;101292.22;;;1.55;100.00
4858;BME280;58975;51.978;8.472;2023-03-01T18:06:25;101287.88;;;1.54;100.00
4858;BME280;58975;51.978;8.472;2023-03-01T18:11:23;101281.69;;;1.56;100.00
4858;BME280;58975;51.978;8.472;2023-03-01T18:16:21;101288.06;;;1.48;100.00
4858;BME280;58975;51.978;8.472;2023-03-01T18:21:18;101287.31;;;1.42;100.00
4858;BME280;58975;51.978;8.472;2023-03-01T18:26:16;101291.28;;;1.26;100.00
4858;BME280;58975;51.978;8.472;2023-03-01T18:31:16;101284.75;;;1.10;100.00
4858;BME280;58975;51.978;8.472;2023-03-01T18:36:24;101282.44;;;1.00;100.00
4858;BME280;58975;51.978;8.472;2023-03-01T18:41:23;101277.31;;;0.95;100.00
4858;BME280;58975;51.978;8.472;2023-03-01T18:46:20;101280.44;;;0.77;100.00
4858;BME280;58975;51.978;8.472;2023-03-01T18:51:23;101277.84;;;0.75;100.00
4858;BME280;58975;51.978;8.472;2023-03-01T18:56:20;101268.06;;;0.82;100.00
4858;BME280;58975;51.978;8.472;2023-03-01T19:01:20;101255.97;;;0.76;100.00
4858;BME280;58975;51.978;8.472;2023-03-01T19:06:17;101258.13;;;0.93;100.00
4858;BME280;58975;51.978;8.472;2023-03-01T19:11:14;101252.06;;;0.91;100.00
4858;BME280;58975;51.978;8.472;2023-03-01T19:16:19;101262.22;;;1.03;100.00
4858;BME280;58975;51.978;8.472;2023-03-01T19:21:18;101264.19;;;0.95;100.00
4858;BME280;58975;51.978;8.472;2023-03-01T19:26:18;101271.91;;;0.69;100.00
4858;BME280;58975;51.978;8.472;2023-03-01T19:31:17;101275.91;;;0.48;100.00
4858;BME280;58975;51.978;8.472;2023-03-01T19:36:14;101269.31;;;0.33;100.00
4858;BME280;58975;51.978;8.472;2023-03-01T19:41:13;101257.28;;;0.25;100.00
4858;BME280;58975;51.978;8.472;2023-03-01T19:46:10;101269.13;;;0.06;100.00
4858;BME280;58975;51.978;8.472;2023-03-01T19:51:07;101262.41;;;-0.06;100.00
4858;BME280;58975;51.978;8.472;2023-03-01T19:56:04;101264.47;;;0.18;100.00
4858;BME280;58975;51.978;8.472;2023-03-01T20:01:00;101268.13;;;0.11;100.00
4858;BME280;58975;51.978;8.472;2023-03-01T20:05:57;101264.75;;;0.06;100.00
4858;BME280;58975;51.978;8.472;2023-03-01T20:11:00;101277.00;;;0.04;100.00
4858;BME280;58975;51.978;8.472;2023-03-01T20:15:57;101268.03;;;0.14;100.00
4858;BME280;58975;51.978;8.472;2023-03-01T20:20:53;101279.84;;;-0.05;100.00
4858;BME280;58975;51.978;8.472;2023-03-01T20:25:50;101272.19;;;-0.13;100.00
4858;BME280;58975;51.978;8.472;2023-03-01T20:30:47;101263.66;;;-0.22;100.00
4858;BME280;58975;51.978;8.472;2023-03-01T20:35:44;101261.81;;;-0.19;100.00
4858;BME280;58975;51.978;8.472;2023-03-01T20:40:40;101236.94;;;-0.36;100.00
4858;BME280;58975;51.978;8.472;2023-03-01T20:45:37;101247.34;;;-0.33;100.00
4858;BME280;58975;51.978;8.472;2023-03-01T20:50:33;101263.38;;;-0.10;100.00
4858;BME280;58975;51.978;8.472;2023-03-01T20:55:29;101267.84;;;-0.14;100.00
4858;BME280;58975;51.978;8.472;2023-03-01T21:00:26;101274.13;;;-0.22;100.00
4858;BME280;58975;51.978;8.472;2023-03-01T21:05:23;101271.94;;;-0.40;100.00
4858;BME280;58975;51.978;8.472;2023-03-01T21:10:19;101270.00;;;-0.32;100.00
4858;BME280;58975;51.978;8.472;2023-03-01T21:15:15;101269.91;;;-0.28;100.00
4858;BME280;58975;51.978;8.472;2023-03-01T21:20:24;101267.78;;;-0.51;100.00
4858;BME280;58975;51.978;8.472;2023-03-01T21:25:20;101271.22;;;-0.49;100.00
4858;BME280;58975;51.978;8.472;2023-03-01T21:30:17;101276.56;;;-0.55;100.00
4858;BME280;58975;51.978;8.472;2023-03-01T21:35:13;101275.06;;;-0.65;100.00
4858;BME280;58975;51.978;8.472;2023-03-01T21:40:10;101263.31;;;-0.47;100.00
4858;BME280;58975;51.978;8.472;2023-03-01T21:45:07;101254.22;;;-0.29;100.00
4858;BME280;58975;51.978;8.472;2023-03-01T21:50:05;101246.38;;;-0.29;100.00
4858;BME280;58975;51.978;8.472;2023-03-01T21:55:04;101253.88;;;-0.53;100.00
4858;BME280;58975;51.978;8.472;2023-03-01T22:00:00;101243.59;;;-0.62;100.00
4858;BME280;58975;51.978;8.472;2023-03-01T22:04:56;101235.69;;;-0.59;100.00
4858;BME280;58975;51.978;8.472;2023-03-01T22:09:53;101239.31;;;-0.66;100.00
4858;BME280;58975;51.978;8.472;2023-03-01T22:14:49;101233.34;;;-0.71;100.00
4858;BME280;58975;51.978;8.472;2023-03-01T22:19:46;101236.06;;;-0.75;100.00
4858;BME280;58975;51.978;8.472;2023-03-01T22:24:42;101234.19;;;-0.70;100.00
4858;BME280;58975;51.978;8.472;2023-03-01T22:29:38;101239.41;;;-0.70;100.00
4858;BME280;58975;51.978;8.472;2023-03-01T22:34:35;101245.91;;;-0.88;100.00
4858;BME280;58975;51.978;8.472;2023-03-01T22:39:32;101234.09;;;-1.07;100.00
4858;BME280;58975;51.978;8.472;2023-03-01T22:44:28;101230.78;;;-1.15;100.00
4858;BME280;58975;51.978;8.472;2023-03-01T22:49:24;101229.59;;;-1.01;100.00
4858;BME280;58975;51.978;8.472;2023-03-01T22:54:21;101225.25;;;-1.02;100.00
4858;BME280;58975;51.978;8.472;2023-03-01T22:59:19;101223.84;;;-1.18;100.00
4858;BME280;58975;51.978;8.472;2023-03-01T23:04:19;101214.69;;;-1.40;100.00
4858;BME280;58975;51.978;8.472;2023-03-01T23:09:17;101211.28;;;-1.45;100.00
4858;BME280;58975;51.978;8.472;2023-03-01T23:14:13;101210.13;;;-1.29;100.00
4858;BME280;58975;51.978;8.472;2023-03-01T23:19:11;101212.63;;;-1.23;100.00
4858;BME280;58975;51.978;8.472;2023-03-01T23:24:07;101210.66;;;-1.12;100.00
4858;BME280;58975;51.978;8.472;2023-03-01T23:29:05;101211.47;;;-1.08;100.00
4858;BME280;58975;51.978;8.472;2023-03-01T23:34:02;101207.47;;;-1.27;100.00
4858;BME280;58975;51.978;8.472;2023-03-01T23:39:01;101206.25;;;-1.54;100.00
4858;BME280;58975;51.978;8.472;2023-03-01T23:44:00;101209.09;;;-1.66;100.00
4858;BME280;58975;51.978;8.472;2023-03-01T23:48:57;101206.75;;;-1.81;100.00
4858;BME280;58975;51.978;8.472;2023-03-01T23:53:59;101205.81;;;-1.79;100.00
4858;BME280;58975;51.978;8.472;2023-03-01T23:59:02;101203.94;;;-1.71;100.00
